Time;durP1;ratioP1;P1;durP2;ratioP2;P2;SDS_P1;SDS_P2;PMS_P1;PMS_P2;Temp;Humidity;BMP_temperature;BMP_pressure;BME280_temperature;BME280_humidity;BME280_pressure;Samples;Min_cycle;Max_cycle;Signal;HPM_P1;HPM_P2
2023/07/28 00:00:49;;;;;;;4.82;4.43;;;19.70;99.90;;;;;;2089020;28;20826;-70
2023/07/28 00:01:50;;;;;;;6.65;4.43;;;19.70;99.90;;;;;;2093317;28;20060;-70
2023/07/28 00:02:50;;;;;;;5.65;4.30;;;19.70;99.90;;;;;;2091380;28;20024;-70
2023/07/28 00:03:51;;;;;;;4.65;3.95;;;19.60;99.90;;;;;;2090400;28;20032;-70
2023/07/28 00:04:52;;;;;;;4.18;3.83;;;19.70;99.90;;;;;;2093051;28;20380;-70
2023/07/28 00:05:52;;;;;;;6.70;4.60;;;19.60;99.90;;;;;;2090111;28;20060;-70
2023/07/28 00:06:53;;;;;;;4.82;4.38;;;19.70;99.90;;;;;;2092950;28;20029;-70
2023/07/28 00:07:53;;;;;;;4.65;4.18;;;19.60;99.90;;;;;;2091395;28;20028;-70
2023/07/28 00:08:54;;;;;;;4.50;4.10;;;19.60;99.90;;;;;;2092007;28;20021;-70
2023/07/28 00:09:54;;;;;;;4.63;4.22;;;19.60;99.90;;;;;;2089755;28;20044;-70
2023/07/28 00:10:55;;;;;;;4.45;4.05;;;19.70;99.90;;;;;;2092089;28;20376;-70
2023/07/28 00:11:57;;;;;;;4.50;4.10;;;19.70;99.90;;;;;;2091784;28;20057;-70
2023/07/28 00:12:58;;;;;;;4.63;4.22;;;19.70;99.90;;;;;;2091769;28;20025;-70
2023/07/28 00:13:59;;;;;;;4.47;4.13;;;19.70;99.90;;;;;;2092067;28;20023;-70
2023/07/28 00:15:00;;;;;;;4.80;4.40;;;19.70;99.90;;;;;;2092958;28;20026;-70
2023/07/28 00:16:00;;;;;;;4.90;4.13;;;19.70;99.90;;;;;;2094077;28;20734;-70
2023/07/28 00:17:01;;;;;;;4.88;4.47;;;19.70;99.90;;;;;;2093661;28;20366;-70
2023/07/28 00:18:01;;;;;;;5.65;4.43;;;19.70;99.90;;;;;;2090431;28;20055;-70
2023/07/28 00:19:02;;;;;;;4.57;4.18;;;19.70;99.90;;;;;;2092014;28;20021;-70
2023/07/28 00:20:03;;;;;;;5.20;4.70;;;19.70;99.90;;;;;;2090415;28;20036;-70
2023/07/28 00:21:05;;;;;;;4.65;4.25;;;19.70;99.90;;;;;;2093042;28;20041;-70
2023/07/28 00:22:05;;;;;;;5.53;4.88;;;19.70;99.90;;;;;;2091397;28;20509;-70
2023/07/28 00:23:08;;;;;;;5.07;4.65;;;19.70;99.90;;;;;;2092168;28;20125;-70
2023/07/28 00:24:09;;;;;;;5.15;4.70;;;19.70;99.90;;;;;;2091252;28;20024;-70
2023/07/28 00:25:09;;;;;;;6.40;4.75;;;19.70;99.90;;;;;;2089784;28;20021;-70
2023/07/28 00:26:10;;;;;;;4.93;4.55;;;19.70;99.90;;;;;;2093023;28;20066;-70
2023/07/28 00:27:12;;;;;;;4.70;4.30;;;19.70;99.90;;;;;;2090753;28;20361;-70
2023/07/28 00:28:13;;;;;;;5.72;4.93;;;19.70;99.90;;;;;;2091048;28;20090;-70
2023/07/28 00:29:14;;;;;;;5.25;4.78;;;19.70;99.90;;;;;;2093998;28;20471;-70
2023/07/28 00:30:15;;;;;;;6.60;4.70;;;19.60;99.90;;;;;;2093663;28;20024;-70
2023/07/28 00:31:15;;;;;;;4.80;4.50;;;19.70;99.90;;;;;;2091994;28;20017;-70
2023/07/28 00:32:16;;;;;;;4.63;4.30;;;19.70;99.90;;;;;;2091042;28;20052;-70
2023/07/28 00:33:17;;;;;;;4.60;4.20;;;19.60;99.90;;;;;;2091079;28;20412;-70
2023/07/28 00:34:17;;;;;;;5.40;4.90;;;19.70;99.90;;;;;;2093027;28;20579;-70
2023/07/28 00:35:18;;;;;;;5.32;4.75;;;19.60;99.90;;;;;;2092333;28;20416;-70
2023/07/28 00:36:18;;;;;;;4.78;4.45;;;19.70;99.90;;;;;;2091871;28;20073;-70
2023/07/28 00:37:19;;;;;;;5.30;4.80;;;19.70;99.90;;;;;;2090796;28;20432;-70
2023/07/28 00:38:19;;;;;;;5.53;4.95;;;19.70;99.90;;;;;;2089410;28;20035;-70
2023/07/28 00:39:20;;;;;;;5.15;4.43;;;19.70;99.90;;;;;;2092523;28;20021;-70
2023/07/28 00:40:22;;;;;;;5.50;4.78;;;19.70;99.90;;;;;;2089421;28;20106;-70
2023/07/28 00:41:23;;;;;;;5.65;5.00;;;19.70;99.90;;;;;;2091057;28;20032;-70
2023/07/28 00:42:23;;;;;;;5.82;4.90;;;19.70;99.90;;;;;;2090908;28;20028;-70
2023/07/28 00:43:24;;;;;;;5.88;5.38;;;19.70;99.90;;;;;;2090168;28;20025;-70
2023/07/28 00:44:25;;;;;;;5.10;4.60;;;19.70;99.90;;;;;;2090181;28;20077;-70
2023/07/28 00:45:25;;;;;;;5.95;5.03;;;19.70;99.90;;;;;;2091691;28;20024;-70
2023/07/28 00:46:26;;;;;;;6.13;5.53;;;19.60;99.90;;;;;;2092257;28;20911;-70
2023/07/28 00:47:27;;;;;;;6.18;5.38;;;19.70;99.90;;;;;;2092098;28;20041;-70
2023/07/28 00:48:27;;;;;;;6.20;5.70;;;19.70;99.90;;;;;;2093318;28;20021;-70
2023/07/28 00:49:28;;;;;;;5.95;5.35;;;19.60;99.90;;;;;;2092776;28;20441;-70
2023/07/28 00:50:29;;;;;;;6.22;5.70;;;19.60;99.90;;;;;;2090393;28;20524;-70
2023/07/28 00:51:31;;;;;;;6.97;5.60;;;19.60;99.90;;;;;;2093074;28;20373;-70
2023/07/28 00:52:31;;;;;;;6.35;5.72;;;19.70;99.90;;;;;;2091027;28;20751;-70
2023/07/28 00:53:32;;;;;;;6.60;5.80;;;19.60;99.90;;;;;;2089783;28;20450;-70
2023/07/28 00:54:33;;;;;;;6.07;5.57;;;19.60;99.90;;;;;;2092558;28;20071;-70
2023/07/28 00:55:34;;;;;;;6.25;5.75;;;19.60;99.90;;;;;;2091778;28;20033;-70
2023/07/28 00:56:35;;;;;;;5.88;5.45;;;19.60;99.90;;;;;;2092541;28;20024;-70
2023/07/28 00:57:35;;;;;;;7.97;6.15;;;19.70;99.90;;;;;;2091121;28;20059;-70
2023/07/28 00:58:36;;;;;;;6.28;5.70;;;19.60;99.90;;;;;;2091522;28;20536;-70
2023/07/28 00:59:36;;;;;;;5.80;5.20;;;19.60;99.90;;;;;;2091541;28;20013;-70
2023/07/28 01:00:37;;;;;;;6.15;5.55;;;19.60;99.90;;;;;;2091135;28;20020;-70
2023/07/28 01:01:38;;;;;;;6.85;6.05;;;19.60;99.90;;;;;;2091111;28;20021;-70
2023/07/28 01:02:39;;;;;;;7.22;5.25;;;19.60;99.90;;;;;;2092718;28;20021;-70
2023/07/28 01:03:39;;;;;;;6.30;5.70;;;19.60;99.90;;;;;;2093930;28;20484;-70
2023/07/28 01:04:40;;;;;;;5.70;5.28;;;19.60;99.90;;;;;;2090834;28;20028;-70
2023/07/28 01:06:09;;;;;;;5.63;5.13;;;19.60;99.90;;;;;;2090910;28;20023;-70
2023/07/28 01:07:26;;;;;;;5.90;5.40;;;19.60;99.90;;;;;;2092177;28;20024;-70
2023/07/28 01:08:30;;;;;;;5.07;4.68;;;19.60;99.90;;;;;;2092583;28;20032;-70
2023/07/28 01:09:43;;;;;;;5.05;4.65;;;19.60;99.90;;;;;;2092385;28;20060;-70
2023/07/28 01:10:43;;;;;;;5.20;4.80;;;19.60;99.90;;;;;;2091381;28;20037;-70
2023/07/28 01:11:57;;;;;;;4.47;4.18;;;19.60;99.90;;;;;;2090804;28;20029;-70
2023/07/28 01:12:58;;;;;;;4.57;4.18;;;19.60;99.90;;;;;;2095560;28;20025;-70
2023/07/28 01:13:59;;;;;;;4.85;4.53;;;19.60;99.90;;;;;;2094534;28;20074;-70
2023/07/28 01:14:59;;;;;;;5.30;4.88;;;19.60;99.90;;;;;;2092171;28;20182;-70
2023/07/28 01:16:00;;;;;;;6.47;5.65;;;19.60;99.90;;;;;;2093036;28;20029;-70
2023/07/28 01:17:01;;;;;;;5.25;4.75;;;19.60;99.90;;;;;;2090784;28;20035;-70
2023/07/28 01:18:01;;;;;;;4.75;4.20;;;19.60;99.90;;;;;;2092494;28;20029;-70
2023/07/28 01:19:02;;;;;;;5.55;5.03;;;19.60;99.90;;;;;;2089326;28;20037;-70
2023/07/28 01:20:03;;;;;;;4.00;3.70;;;19.60;99.90;;;;;;2088928;28;20028;-70
2023/07/28 01:21:08;;;;;;;5.43;3.85;;;19.60;99.90;;;;;;2093064;28;20040;-70
2023/07/28 01:22:37;;;;;;;4.55;3.40;;;19.60;99.90;;;;;;2091105;28;20033;-70
2023/07/28 01:24:05;;;;;;;3.70;3.38;;;19.70;99.90;;;;;;2087293;28;20563;-70
2023/07/28 01:25:24;;;;;;;4.85;3.47;;;19.60;99.90;;;;;;2092707;28;20223;-70
2023/07/28 01:26:35;;;;;;;3.33;2.90;;;19.60;99.90;;;;;;2093216;28;20071;-70
2023/07/28 01:27:37;;;;;;;3.70;3.05;;;19.60;99.90;;;;;;2094236;28;20117;-70
2023/07/28 01:28:40;;;;;;;3.25;3.05;;;19.60;99.90;;;;;;2092272;28;20070;-70
2023/07/28 01:29:41;;;;;;;3.55;3.25;;;19.60;99.90;;;;;;2095103;28;20017;-70
2023/07/28 01:30:42;;;;;;;3.10;2.90;;;19.60;99.90;;;;;;2093188;28;20092;-70
2023/07/28 01:31:42;;;;;;;3.47;3.20;;;19.60;99.90;;;;;;2091820;28;20024;-70
2023/07/28 01:32:43;;;;;;;3.40;3.10;;;19.60;99.90;;;;;;2094573;28;20098;-70
2023/07/28 01:33:43;;;;;;;3.28;2.88;;;19.60;99.90;;;;;;2096176;28;20033;-70
2023/07/28 01:34:44;;;;;;;4.57;3.10;;;19.60;99.90;;;;;;2093058;28;20028;-70
2023/07/28 01:35:45;;;;;;;3.10;2.80;;;19.60;99.90;;;;;;2092247;28;20431;-70
2023/07/28 01:36:45;;;;;;;4.47;2.70;;;19.60;99.90;;;;;;2093562;28;20498;-70
2023/07/28 01:37:50;;;;;;;4.90;2.72;;;19.60;99.90;;;;;;2091601;28;20068;-70
2023/07/28 01:38:51;;;;;;;3.13;2.83;;;19.60;99.90;;;;;;2094086;28;20473;-70
2023/07/28 01:39:51;;;;;;;3.33;2.78;;;19.60;99.90;;;;;;2092205;28;20380;-70
2023/07/28 01:40:52;;;;;;;5.60;3.00;;;19.60;99.90;;;;;;2091864;28;20105;-70
2023/07/28 01:41:52;;;;;;;3.67;2.55;;;19.60;99.90;;;;;;2092734;28;20017;-70
2023/07/28 01:42:53;;;;;;;3.53;3.15;;;19.60;99.90;;;;;;2090013;28;20390;-70
2023/07/28 01:43:55;;;;;;;2.83;2.63;;;19.60;99.90;;;;;;2092524;28;20021;-70
2023/07/28 01:44:56;;;;;;;3.58;3.08;;;19.60;99.90;;;;;;2094323;28;20496;-70
2023/07/28 01:45:56;;;;;;;3.40;3.17;;;19.60;99.90;;;;;;2092834;28;20373;-70
2023/07/28 01:46:57;;;;;;;3.47;3.15;;;19.60;99.90;;;;;;2093237;28;20039;-70
2023/07/28 01:47:57;;;;;;;3.88;3.50;;;19.60;99.90;;;;;;2093273;28;20021;-70
2023/07/28 01:48:58;;;;;;;3.03;2.83;;;19.60;99.90;;;;;;2093393;28;20081;-70
2023/07/28 01:49:58;;;;;;;3.38;3.10;;;19.60;99.90;;;;;;2092533;28;20032;-70
2023/07/28 01:50:59;;;;;;;3.22;2.90;;;19.60;99.90;;;;;;2093142;28;20028;-70
2023/07/28 01:51:59;;;;;;;3.40;2.72;;;19.60;99.90;;;;;;2092695;28;20407;-70
2023/07/28 01:53:00;;;;;;;3.42;2.92;;;19.60;99.90;;;;;;2093937;28;20743;-70
2023/07/28 01:54:01;;;;;;;2.92;2.38;;;19.60;99.90;;;;;;2093043;28;20098;-70
2023/07/28 01:55:01;;;;;;;2.85;2.65;;;19.60;99.90;;;;;;2092495;28;20025;-70
2023/07/28 01:56:02;;;;;;;4.00;2.63;;;19.60;99.90;;;;;;2092384;28;20032;-70
2023/07/28 01:57:03;;;;;;;5.63;2.88;;;19.60;99.90;;;;;;2091606;28;20110;-70
2023/07/28 01:58:03;;;;;;;2.88;2.67;;;19.60;99.90;;;;;;2093205;28;20037;-70
2023/07/28 01:59:04;;;;;;;2.65;2.45;;;19.60;99.90;;;;;;2091845;28;20100;-70
2023/07/28 02:00:05;;;;;;;3.88;2.50;;;19.60;99.90;;;;;;2092089;28;20029;-70
2023/07/28 02:01:06;;;;;;;2.80;2.30;;;19.70;99.90;;;;;;2093827;28;22389;-70
2023/07/28 02:02:06;;;;;;;3.65;2.50;;;19.70;99.90;;;;;;2092225;28;20029;-70
2023/07/28 02:03:07;;;;;;;2.45;2.25;;;19.70;99.90;;;;;;2092749;28;20733;-70
2023/07/28 02:04:07;;;;;;;2.88;2.65;;;19.70;99.90;;;;;;2092617;28;20082;-70
2023/07/28 02:05:08;;;;;;;3.38;2.30;;;19.70;99.90;;;;;;2093231;28;20020;-70
2023/07/28 02:06:08;;;;;;;2.47;2.03;;;19.70;99.90;;;;;;2093194;28;20024;-70
2023/07/28 02:07:09;;;;;;;2.63;2.15;;;19.70;99.90;;;;;;2093556;28;20017;-70
2023/07/28 02:08:09;;;;;;;2.13;2.03;;;19.70;99.90;;;;;;2093493;28;20381;-70
2023/07/28 02:09:10;;;;;;;2.75;2.30;;;19.70;99.90;;;;;;2091516;28;20013;-70
2023/07/28 02:10:11;;;;;;;3.47;1.92;;;19.70;99.90;;;;;;2091261;28;20017;-70
2023/07/28 02:11:11;;;;;;;1.83;1.73;;;19.70;99.90;;;;;;2090976;28;20024;-70
2023/07/28 02:12:12;;;;;;;2.80;2.30;;;19.70;99.90;;;;;;2093042;28;20025;-70
2023/07/28 02:13:12;;;;;;;3.00;2.38;;;19.70;99.90;;;;;;2091425;28;20029;-70
2023/07/28 02:14:13;;;;;;;2.53;2.35;;;19.70;99.90;;;;;;2091925;28;20104;-70
2023/07/28 02:15:13;;;;;;;3.75;2.70;;;19.70;99.90;;;;;;2092323;28;20047;-70
2023/07/28 02:16:14;;;;;;;2.80;2.60;;;19.70;99.90;;;;;;2091592;28;20052;-70
2023/07/28 02:17:14;;;;;;;5.63;2.50;;;19.70;99.90;;;;;;2091601;28;20037;-70
2023/07/28 02:18:15;;;;;;;3.97;2.80;;;19.70;99.90;;;;;;2091263;28;20893;-70
2023/07/28 02:19:15;;;;;;;2.78;2.20;;;19.70;99.90;;;;;;2091973;28;20388;-70
2023/07/28 02:20:16;;;;;;;4.05;2.65;;;19.70;99.90;;;;;;2092828;28;20584;-70
2023/07/28 02:21:17;;;;;;;3.72;2.45;;;19.70;99.90;;;;;;2093830;28;20023;-70
2023/07/28 02:22:17;;;;;;;2.20;2.10;;;19.70;99.90;;;;;;2093471;28;20105;-70
2023/07/28 02:23:18;;;;;;;2.58;2.22;;;19.70;99.90;;;;;;2092432;28;20063;-70
2023/07/28 02:24:18;;;;;;;2.28;2.17;;;19.70;99.90;;;;;;2093690;28;20031;-70
2023/07/28 02:25:19;;;;;;;5.28;2.38;;;19.70;99.90;;;;;;2092436;28;20025;-70
2023/07/28 02:26:19;;;;;;;2.97;2.72;;;19.70;99.90;;;;;;2091860;28;20028;-70
2023/07/28 02:27:20;;;;;;;2.80;2.60;;;19.70;99.90;;;;;;2093719;28;20040;-70
2023/07/28 02:28:21;;;;;;;3.45;2.72;;;19.70;99.90;;;;;;2092398;28;20025;-70
2023/07/28 02:29:21;;;;;;;2.80;2.55;;;19.70;99.90;;;;;;2093098;28;20033;-70
2023/07/28 02:30:22;;;;;;;4.03;2.40;;;19.70;99.90;;;;;;2091474;28;20154;-70
2023/07/28 02:31:22;;;;;;;2.70;2.50;;;19.70;99.90;;;;;;2092299;28;20037;-70
2023/07/28 02:32:23;;;;;;;4.32;2.58;;;19.70;99.90;;;;;;2092225;28;20054;-70
2023/07/28 02:33:24;;;;;;;3.78;3.08;;;19.70;99.90;;;;;;2093183;28;20016;-70
2023/07/28 02:34:24;;;;;;;2.38;2.28;;;19.70;99.90;;;;;;2092680;28;20027;-70
2023/07/28 02:35:25;;;;;;;3.35;2.55;;;19.70;99.90;;;;;;2092659;28;20074;-70
2023/07/28 02:36:25;;;;;;;2.67;2.47;;;19.70;99.90;;;;;;2093586;28;20528;-70
2023/07/28 02:37:26;;;;;;;2.67;2.47;;;19.70;99.90;;;;;;2091063;28;20029;-70
2023/07/28 02:38:26;;;;;;;2.70;2.50;;;19.80;99.90;;;;;;2093532;28;20029;-70
2023/07/28 02:39:27;;;;;;;2.10;2.00;;;19.70;99.90;;;;;;2091044;28;20497;-70
2023/07/28 02:40:27;;;;;;;2.83;2.63;;;19.70;99.90;;;;;;2091007;28;20056;-70
2023/07/28 02:41:28;;;;;;;3.10;2.78;;;19.70;99.90;;;;;;2091120;28;20541;-70
2023/07/28 02:42:28;;;;;;;2.75;2.55;;;19.80;99.90;;;;;;2089148;28;20139;-70
2023/07/28 02:43:29;;;;;;;2.88;2.50;;;19.80;99.90;;;;;;2093289;28;20463;-70
2023/07/28 02:44:30;;;;;;;3.08;2.30;;;19.70;99.90;;;;;;2091862;28;20040;-70
2023/07/28 02:45:30;;;;;;;2.05;1.95;;;19.70;99.90;;;;;;2091591;28;20489;-70
2023/07/28 02:46:31;;;;;;;2.60;2.10;;;19.80;99.90;;;;;;2089771;28;20036;-70
2023/07/28 02:47:31;;;;;;;2.55;2.35;;;19.80;99.90;;;;;;2092084;28;20025;-70
2023/07/28 02:48:32;;;;;;;2.38;2.17;;;19.70;99.90;;;;;;2095087;28;20031;-70
2023/07/28 02:49:33;;;;;;;3.75;2.30;;;19.70;99.90;;;;;;2091997;28;20048;-70
2023/07/28 02:50:33;;;;;;;2.58;2.33;;;19.70;99.90;;;;;;2092129;28;20056;-70
2023/07/28 02:51:34;;;;;;;9.02;4.20;;;19.70;99.90;;;;;;2092016;28;20095;-70
2023/07/28 02:52:34;;;;;;;2.75;2.20;;;19.70;99.90;;;;;;2092728;28;20075;-70
2023/07/28 02:53:35;;;;;;;2.55;2.00;;;19.70;99.90;;;;;;2093179;28;20223;-70
2023/07/28 02:54:36;;;;;;;2.35;2.15;;;19.70;99.90;;;;;;2094123;28;20036;-70
2023/07/28 02:55:44;;;;;;;4.22;2.50;;;19.70;99.90;;;;;;2093191;28;20025;-70
2023/07/28 02:56:44;;;;;;;2.65;2.47;;;19.70;99.90;;;;;;2090708;28;20057;-70
2023/07/28 02:57:45;;;;;;;4.60;2.60;;;19.70;99.90;;;;;;2093529;28;20028;-70
2023/07/28 02:58:45;;;;;;;2.40;2.28;;;19.70;99.90;;;;;;2093438;28;20028;-70
2023/07/28 02:59:46;;;;;;;4.28;2.30;;;19.70;99.90;;;;;;2091718;28;20032;-70
2023/07/28 03:00:46;;;;;;;2.38;2.17;;;19.80;99.90;;;;;;2093193;28;20499;-70
2023/07/28 03:01:47;;;;;;;2.33;2.13;;;19.80;99.90;;;;;;2093320;28;20017;-70
2023/07/28 03:02:47;;;;;;;2.67;2.40;;;19.70;99.90;;;;;;2093451;28;20034;-70
2023/07/28 03:03:48;;;;;;;2.83;2.30;;;19.70;99.90;;;;;;2092484;28;20477;-70
2023/07/28 03:04:48;;;;;;;2.20;2.10;;;19.70;99.90;;;;;;2093806;28;20029;-70
2023/07/28 03:05:52;;;;;;;2.53;2.33;;;19.70;99.90;;;;;;2093766;28;20024;-70
2023/07/28 03:06:53;;;;;;;3.28;2.30;;;19.70;99.90;;;;;;2092473;28;20040;-70
2023/07/28 03:07:53;;;;;;;2.53;2.17;;;19.80;99.90;;;;;;2094962;28;20531;-70
2023/07/28 03:08:54;;;;;;;2.25;2.13;;;19.70;99.90;;;;;;2095885;28;20024;-70
2023/07/28 03:09:55;;;;;;;2.22;2.10;;;19.70;99.90;;;;;;2094316;28;20105;-70
2023/07/28 03:10:59;;;;;;;2.10;2.00;;;19.70;99.90;;;;;;2088413;28;20024;-70
2023/07/28 03:11:59;;;;;;;3.95;2.13;;;19.70;99.90;;;;;;2091331;28;20024;-70
2023/07/28 03:13:00;;;;;;;2.80;1.95;;;19.70;99.90;;;;;;2095401;28;20032;-70
2023/07/28 03:14:00;;;;;;;2.75;2.20;;;19.70;99.90;;;;;;2092587;28;20033;-70
2023/07/28 03:15:01;;;;;;;2.42;2.22;;;19.70;99.90;;;;;;2092331;28;20044;-70
2023/07/28 03:16:01;;;;;;;2.63;2.42;;;19.70;99.90;;;;;;2091011;28;20028;-70
2023/07/28 03:17:02;;;;;;;3.30;2.22;;;19.70;99.90;;;;;;2093484;28;20117;-70
2023/07/28 03:18:02;;;;;;;3.42;2.50;;;19.70;99.90;;;;;;2091622;28;20044;-70
2023/07/28 03:19:03;;;;;;;3.58;2.30;;;19.70;99.90;;;;;;2092361;28;20036;-70
2023/07/28 03:20:04;;;;;;;4.50;2.40;;;19.70;99.90;;;;;;2091565;28;20068;-70
2023/07/28 03:21:05;;;;;;;4.30;2.40;;;19.70;99.90;;;;;;2091323;28;20028;-70
2023/07/28 03:22:05;;;;;;;2.60;2.50;;;19.70;99.90;;;;;;2091560;28;20119;-70
2023/07/28 03:23:06;;;;;;;2.90;2.70;;;19.70;99.90;;;;;;2092389;28;20088;-70
2023/07/28 03:24:06;;;;;;;2.83;2.63;;;19.70;99.90;;;;;;2093466;28;20085;-70
2023/07/28 03:25:07;;;;;;;3.00;2.80;;;19.70;99.90;;;;;;2092040;28;20029;-70
2023/07/28 03:26:08;;;;;;;3.60;2.90;;;19.70;99.90;;;;;;2092868;28;20060;-70
2023/07/28 03:27:09;;;;;;;3.50;2.78;;;19.70;99.90;;;;;;2091824;28;20024;-70
2023/07/28 03:28:09;;;;;;;2.97;2.72;;;19.70;99.90;;;;;;2090720;28;20048;-70
2023/07/28 03:29:10;;;;;;;3.97;2.95;;;19.70;99.90;;;;;;2091250;28;20021;-70
2023/07/28 03:30:10;;;;;;;3.85;3.17;;;19.70;99.90;;;;;;2090160;28;20017;-70
2023/07/28 03:31:11;;;;;;;3.38;3.08;;;19.70;99.90;;;;;;2093030;28;20040;-70
2023/07/28 03:32:12;;;;;;;4.15;3.05;;;19.70;99.90;;;;;;2094007;28;20594;-70
2023/07/28 03:33:13;;;;;;;3.70;3.45;;;19.70;99.90;;;;;;2091972;28;20502;-70
2023/07/28 03:34:13;;;;;;;4.05;3.75;;;19.70;99.90;;;;;;2091090;28;20033;-70
2023/07/28 03:35:14;;;;;;;5.80;3.95;;;19.70;99.90;;;;;;2092258;28;20029;-70
2023/07/28 03:36:14;;;;;;;5.80;4.30;;;19.70;99.90;;;;;;2092906;28;20032;-70
2023/07/28 03:37:15;;;;;;;4.40;3.85;;;19.70;99.90;;;;;;2093308;28;20166;-70
2023/07/28 03:38:15;;;;;;;3.92;3.63;;;19.80;99.90;;;;;;2093469;28;20032;-70
2023/07/28 03:39:19;;;;;;;5.30;3.83;;;19.80;99.90;;;;;;2093006;28;20036;-70
2023/07/28 03:40:19;;;;;;;4.18;3.78;;;19.70;99.90;;;;;;2092069;28;20480;-70
2023/07/28 03:41:20;;;;;;;4.10;3.80;;;19.80;99.90;;;;;;2092071;28;20685;-70
2023/07/28 03:42:21;;;;;;;4.65;4.28;;;19.80;99.90;;;;;;2092847;28;20035;-70
2023/07/28 03:43:21;;;;;;;4.38;4.07;;;19.80;99.90;;;;;;2092104;28;20032;-70
2023/07/28 03:44:23;;;;;;;4.28;3.90;;;19.80;99.90;;;;;;2092384;28;20624;-70
2023/07/28 03:45:23;;;;;;;4.72;3.80;;;19.80;99.90;;;;;;2093250;28;20052;-70
2023/07/28 03:46:24;;;;;;;4.15;3.78;;;19.80;99.90;;;;;;2091868;28;20024;-70
2023/07/28 03:47:24;;;;;;;4.57;4.28;;;19.80;99.90;;;;;;2091791;28;20103;-70
2023/07/28 03:48:25;;;;;;;4.10;3.80;;;19.80;99.90;;;;;;2093070;28;20168;-70
2023/07/28 03:49:25;;;;;;;4.80;4.30;;;19.80;99.90;;;;;;2092389;28;20027;-70
2023/07/28 03:50:27;;;;;;;4.07;3.78;;;19.80;99.90;;;;;;2089440;28;20020;-70
2023/07/28 03:51:28;;;;;;;4.72;4.32;;;19.80;99.90;;;;;;2091887;28;20103;-71
2023/07/28 03:52:28;;;;;;;4.65;4.15;;;19.80;99.90;;;;;;2091593;28;20024;-70
2023/07/28 03:53:29;;;;;;;4.68;4.25;;;19.80;99.90;;;;;;2092525;28;20059;-70
2023/07/28 03:54:29;;;;;;;4.43;4.03;;;19.80;99.90;;;;;;2092777;28;20020;-70
2023/07/28 03:55:30;;;;;;;4.10;3.80;;;19.80;99.90;;;;;;2094787;28;20576;-70
2023/07/28 03:56:31;;;;;;;4.60;4.20;;;19.80;99.90;;;;;;2092039;28;20090;-70
2023/07/28 03:57:31;;;;;;;4.65;4.25;;;19.80;99.90;;;;;;2091203;28;20056;-70
2023/07/28 03:58:32;;;;;;;4.38;3.97;;;19.80;99.90;;;;;;2091875;28;20048;-70
2023/07/28 03:59:32;;;;;;;5.55;3.70;;;19.80;99.90;;;;;;2091436;28;20016;-70
2023/07/28 04:00:33;;;;;;;4.68;4.22;;;19.80;99.90;;;;;;2091769;28;20036;-70
2023/07/28 04:01:33;;;;;;;4.57;4.18;;;19.80;99.90;;;;;;2092864;28;20389;-70
2023/07/28 04:02:34;;;;;;;4.10;3.80;;;19.80;99.90;;;;;;2091171;28;20055;-70
2023/07/28 04:03:35;;;;;;;5.75;3.78;;;19.80;99.90;;;;;;2092140;28;20016;-70
2023/07/28 04:04:36;;;;;;;4.03;3.72;;;19.80;99.90;;;;;;2092171;28;20063;-70
2023/07/28 04:05:37;;;;;;;3.97;3.63;;;19.80;99.90;;;;;;2091539;28;20029;-70
2023/07/28 04:06:44;;;;;;;4.13;3.60;;;19.80;99.90;;;;;;2092432;28;20071;-70
2023/07/28 04:07:45;;;;;;;4.20;3.90;;;19.80;99.90;;;;;;2090639;28;20108;-70
2023/07/28 04:08:45;;;;;;;4.07;3.78;;;19.80;99.90;;;;;;2090403;28;20032;-70
2023/07/28 04:09:46;;;;;;;3.78;3.47;;;19.80;99.90;;;;;;2091039;28;20523;-70
2023/07/28 04:10:47;;;;;;;10.52;3.58;;;19.80;99.90;;;;;;2090658;28;20102;-70
2023/07/28 04:11:47;;;;;;;3.60;3.30;;;19.80;99.90;;;;;;2090608;28;20070;-70
2023/07/28 04:12:48;;;;;;;3.55;3.25;;;19.80;99.90;;;;;;2088980;28;20020;-70
2023/07/28 04:13:48;;;;;;;3.90;3.40;;;19.80;99.90;;;;;;2091082;28;20113;-70
2023/07/28 04:14:49;;;;;;;4.53;3.65;;;19.80;99.90;;;;;;2091689;28;20032;-69
2023/07/28 04:15:49;;;;;;;4.05;3.40;;;19.90;99.90;;;;;;2090432;28;20059;-70
2023/07/28 04:16:50;;;;;;;4.63;3.75;;;19.90;99.90;;;;;;2090987;28;20028;-70
2023/07/28 04:17:50;;;;;;;4.10;3.80;;;19.80;99.90;;;;;;2093181;28;20050;-70
2023/07/28 04:18:51;;;;;;;3.53;3.22;;;19.90;99.90;;;;;;2090769;28;20107;-70
2023/07/28 04:19:51;;;;;;;3.40;3.10;;;19.90;99.90;;;;;;2091907;28;20477;-70
2023/07/28 04:20:52;;;;;;;3.53;3.30;;;19.90;99.90;;;;;;2091199;28;20029;-70
2023/07/28 04:21:53;;;;;;;4.38;3.35;;;19.90;99.90;;;;;;2092253;28;20020;-70
2023/07/28 04:22:53;;;;;;;3.42;3.08;;;19.90;99.90;;;;;;2091439;28;20028;-70
2023/07/28 04:23:54;;;;;;;3.72;3.42;;;19.90;99.90;;;;;;2091170;28;20408;-70
2023/07/28 04:24:55;;;;;;;3.28;3.08;;;19.90;99.90;;;;;;2090097;28;20045;-70
2023/07/28 04:25:56;;;;;;;3.10;2.90;;;19.90;99.90;;;;;;2091863;28;20025;-70
2023/07/28 04:26:57;;;;;;;3.40;3.10;;;19.90;99.90;;;;;;2091939;28;20429;-70
2023/07/28 04:27:58;;;;;;;3.25;2.95;;;19.90;99.90;;;;;;2090744;28;20438;-70
2023/07/28 04:28:58;;;;;;;5.43;3.17;;;19.90;99.90;;;;;;2092978;28;20092;-70
2023/07/28 04:29:59;;;;;;;3.30;3.10;;;19.90;99.90;;;;;;2090424;28;20029;-70
2023/07/28 04:30:59;;;;;;;3.53;3.22;;;19.90;99.90;;;;;;2092631;28;20025;-70
2023/07/28 04:32:00;;;;;;;3.33;3.05;;;19.90;99.90;;;;;;2090739;28;20033;-70
2023/07/28 04:33:01;;;;;;;3.40;2.88;;;19.90;99.90;;;;;;2090130;28;20029;-70
2023/07/28 04:34:03;;;;;;;2.88;2.67;;;19.90;99.90;;;;;;2091510;28;20045;-70
2023/07/28 04:35:05;;;;;;;2.67;2.58;;;19.90;99.90;;;;;;2092995;28;20681;-70
2023/07/28 04:36:05;;;;;;;2.95;2.75;;;19.90;99.90;;;;;;2091651;28;20073;-70
2023/07/28 04:37:06;;;;;;;3.03;2.47;;;19.90;99.90;;;;;;2090636;28;20055;-70
2023/07/28 04:38:07;;;;;;;3.42;2.90;;;19.90;99.90;;;;;;2090566;28;20618;-70
2023/07/28 04:39:07;;;;;;;2.97;2.83;;;19.90;99.90;;;;;;2091267;28;20661;-70
2023/07/28 04:40:08;;;;;;;3.05;2.75;;;19.90;99.90;;;;;;2090778;28;20156;-70
2023/07/28 04:41:09;;;;;;;3.33;2.92;;;20.00;99.90;;;;;;2093438;28;20464;-70
2023/07/28 04:42:10;;;;;;;3.25;3.00;;;19.90;99.90;;;;;;2093277;28;20556;-70
2023/07/28 04:43:10;;;;;;;2.95;2.75;;;20.00;99.90;;;;;;2092591;28;20016;-70
2023/07/28 04:44:11;;;;;;;3.25;3.05;;;20.00;99.90;;;;;;2091731;28;20083;-70
2023/07/28 04:45:11;;;;;;;2.95;2.72;;;20.00;99.90;;;;;;2090022;28;20020;-70
2023/07/28 04:46:12;;;;;;;2.88;2.67;;;20.00;99.90;;;;;;2092261;28;20029;-70
2023/07/28 04:47:12;;;;;;;2.90;2.78;;;20.00;99.90;;;;;;2092144;28;20412;-70
2023/07/28 04:48:13;;;;;;;3.47;3.17;;;20.00;99.90;;;;;;2091549;28;20040;-70
2023/07/28 04:49:14;;;;;;;2.92;2.75;;;20.00;99.90;;;;;;2092640;28;20036;-70
2023/07/28 04:50:14;;;;;;;2.95;2.70;;;20.00;99.90;;;;;;2090994;28;20031;-70
2023/07/28 04:51:15;;;;;;;3.22;2.92;;;20.00;99.90;;;;;;2090765;28;20484;-70
2023/07/28 04:52:15;;;;;;;3.30;3.10;;;20.00;99.90;;;;;;2090025;28;20021;-70
2023/07/28 04:53:16;;;;;;;3.42;3.08;;;20.00;99.90;;;;;;2091778;28;20480;-70
2023/07/28 04:54:16;;;;;;;3.42;3.13;;;20.00;99.90;;;;;;2092914;28;20027;-70
2023/07/28 04:55:17;;;;;;;2.30;2.20;;;20.00;99.90;;;;;;2091325;28;20029;-70
2023/07/28 04:56:17;;;;;;;3.38;3.05;;;20.00;99.90;;;;;;2091531;28;20041;-70
2023/07/28 04:57:19;;;;;;;2.47;2.33;;;20.00;99.90;;;;;;2093367;28;20016;-70
2023/07/28 04:58:19;;;;;;;2.72;2.53;;;20.00;99.90;;;;;;2091875;28;20507;-70
2023/07/28 04:59:20;;;;;;;2.30;2.20;;;20.00;99.90;;;;;;2092383;28;20401;-70
2023/07/28 05:00:21;;;;;;;3.05;2.85;;;20.00;99.90;;;;;;2090725;28;20423;-70
2023/07/28 05:01:21;;;;;;;2.88;2.67;;;20.00;99.90;;;;;;2092507;28;20032;-70
2023/07/28 05:02:22;;;;;;;2.08;1.98;;;19.90;99.90;;;;;;2094301;28;20168;-70
2023/07/28 05:03:22;;;;;;;2.70;2.50;;;20.00;99.90;;;;;;2092029;28;20035;-70
2023/07/28 05:04:23;;;;;;;2.47;2.38;;;20.00;99.90;;;;;;2092498;28;20388;-70
2023/07/28 05:05:23;;;;;;;2.60;2.40;;;20.00;99.90;;;;;;2091380;28;20040;-69
2023/07/28 05:06:24;;;;;;;2.10;2.00;;;20.00;99.90;;;;;;2093381;28;20386;-70
2023/07/28 05:07:24;;;;;;;2.35;2.17;;;20.00;99.90;;;;;;2092574;28;20020;-70
2023/07/28 05:08:25;;;;;;;3.13;2.40;;;20.00;99.90;;;;;;2095735;28;20031;-70
2023/07/28 05:09:27;;;;;;;2.13;2.00;;;20.00;99.90;;;;;;2093467;28;20457;-70
2023/07/28 05:10:28;;;;;;;2.40;1.88;;;20.00;99.90;;;;;;2092143;28;20070;-70
2023/07/28 05:11:29;;;;;;;2.10;2.00;;;20.00;99.90;;;;;;2094162;28;20097;-70
2023/07/28 05:12:29;;;;;;;4.07;2.50;;;20.00;99.90;;;;;;2093054;28;20032;-70
2023/07/28 05:13:30;;;;;;;2.30;2.20;;;20.00;99.90;;;;;;2093507;28;20419;-70
2023/07/28 05:14:30;;;;;;;2.30;2.10;;;20.00;99.90;;;;;;2092035;28;20021;-70
2023/07/28 05:15:31;;;;;;;2.40;2.30;;;20.00;99.90;;;;;;2092070;28;20492;-70
2023/07/28 05:16:32;;;;;;;2.83;2.63;;;20.10;99.90;;;;;;2092451;28;20059;-70
2023/07/28 05:17:33;;;;;;;2.70;2.50;;;20.10;99.90;;;;;;2093858;28;20028;-70
2023/07/28 05:18:33;;;;;;;2.67;2.47;;;20.10;99.90;;;;;;2094224;28;20770;-70
2023/07/28 05:19:34;;;;;;;2.78;2.58;;;20.10;99.90;;;;;;2091647;28;20171;-69